Terminal Aerodrome Forecast
Issued by NWS

Current Version | Previous Version | Text Only | Print | Product List | Glossary Off
Versions: 1 2 3 4 5 6 7 8 9 10 11 12

000
FTUS44 KSJT 300533
TAFBBD
TAF
KBBD 300533Z 3006/3106 07005KT P6SM SCT150 BKN250
     FM301200 08003KT P6SM SCT015
     FM301500 14006KT P6SM SCT050
      AMD NOT SKED=

USA.gov is the U.S. government's official web portal to all federal, state and local government web resources and services.